Tipton, Tennessee
Current Conditions -  °F | °C
As of 1:50 PM on Thursday 23 Oct 2014 (Local Time) from KNQA Reporting Station
Broken Clouds Broken Clouds  
Wind Chill: 64°   Ceiling: 15000
Heat Index: 64°   Visibility: 10mi
Dew Point: 46°   Wind: 3mph
Humidity: 52%   Direction: NA
Pressure: 30.15"   Gusts: NA
Location:  35.41°N, 89.82°W
Report Text: KNQA 231850Z VRB03KT 10SM BKN150 BKN250 18/08 A3015
Loading
Personal Weather Stations






























Interactive Weather Map
Tropical Storm Tracking
New forecast layout! Learn more

10-Day Weather Forecast

Advertisements
Track Severe Weather on mobile